Hauptseite
METAR-TAF:

METAR-TAF

Flughäfen :

Flughafen Deauville

Deauville, Frankreich

Breite: 49-21-55N, Länge: 000-09-16E, Höhe: 146 m

Beobachtung

Neuester Wetterbericht von vor 35 Minuten, um 22:30 UTC
Wind 8 kt aus Ost/Südost, variierte zwischen Ost und Südost
Temperatur 6°C
Luftfeuchtigkeit 100%
Luftdruck 1024 hPa
Sichtweite: 0750 m
Nebel

METAR: LFRG 162230Z AUTO 11008KT 080V140 0800 0750 R30/0900D FG VV/// 06/06 Q1024

Zeit: 00:05 (23:05 UTC)

Prognose

Neuester Wetterbericht von vor 2 Stunden und 54 Minuten, um 20:11 UTC
Gültige Prognose vom 16 um 20 UTC bis 16 um 24 UTC
Wind 8 kt aus Ost/Südost
Sichtweite: 1200 m
Geschlossene Wolkendecke in der Höhe von 200 ft
feuchter Dunst
Zeitweise
vom 16 um 20 UTC bis 16 um 24 UTC
Sichtweite: 0500 m
Nebel

TAF: LFRG 162011Z 1620/1624 11008KT 1200 BR OVC002 TEMPO 1620/1624 0500 FG VV///

Wetterbeobachtungen und Prognosen von mehr als 4000 Flughäfen (METAR und TAF Bericht).

Die verfügbaren Stationen werden durch gelbe und rote Markierungen auf der Karte dargestellt.

Führen Sie die Maus auf sie, um den Namen der Station zu sehen.

Darauf klicken, um die Beobachtung von Wetterbeobachtungen und Prognosen zu sehen.

Um die Karte zu ändern : klicken Sie auf den grünen Tasten mit einem schwarzen Kreuz Zum Vergrößern, auf den grünen Button mit einem Gedankenstrich zu verkleinern, oder auf die grünen Pfeile für benachbarte Karten.


METAR-TAF: